Holiday Hills, Illinois
Current Conditions -  °F | °C
As of 3:55 PM on Sunday 25 Jan 2015 (Local Time) from KUGN Reporting Station
Overcast Overcast  
Wind Chill: 15°   Ceiling: 2400
Heat Index: 25°   Visibility: 10mi
Dew Point: 16°   Wind: 10mph
Humidity: 69%   Direction: 10°N
Pressure: 29.91"   Gusts: 28mph
Location:  42.338°N, 88.2857°W
Report Text: KUGN 252155Z 01009G24KT 10SM BKN024 OVC060 M04/M09 A2991 RMK AO2 SLP144 T10391089
Loading
Personal Weather Stations






























Interactive Weather Map New forecast layout! Learn more

10-Day Weather Forecast

Advertisements
Track Severe Weather on mobile